sensor_id;sensor_type;location;lat;lon;timestamp;temperature;humidity
51837;DHT22;38941;53.254;6.600;2024-03-02T00:01:26;7.70;99.90
51837;DHT22;38941;53.254;6.600;2024-03-02T00:03:27;7.60;99.90
51837;DHT22;38941;53.254;6.600;2024-03-02T00:05:29;7.60;99.90
51837;DHT22;38941;53.254;6.600;2024-03-02T00:07:30;7.50;99.90
51837;DHT22;38941;53.254;6.600;2024-03-02T00:09:32;7.60;99.90
51837;DHT22;38941;53.254;6.600;2024-03-02T00:11:35;7.50;99.90
51837;DHT22;38941;53.254;6.600;2024-03-02T00:13:36;7.50;99.90
51837;DHT22;38941;53.254;6.600;2024-03-02T00:17:44;7.50;99.90
51837;DHT22;38941;53.254;6.600;2024-03-02T00:19:46;7.50;99.90
51837;DHT22;38941;53.254;6.600;2024-03-02T00:21:46;7.50;99.90
51837;DHT22;38941;53.254;6.600;2024-03-02T00:23:48;7.50;99.90
51837;DHT22;38941;53.254;6.600;2024-03-02T00:25:53;7.50;99.90
51837;DHT22;38941;53.254;6.600;2024-03-02T00:27:54;7.50;99.90
51837;DHT22;38941;53.254;6.600;2024-03-02T00:29:56;7.50;99.90
51837;DHT22;38941;53.254;6.600;2024-03-02T00:31:57;7.50;99.90
51837;DHT22;38941;53.254;6.600;2024-03-02T00:34:00;7.50;99.90
51837;DHT22;38941;53.254;6.600;2024-03-02T00:36:05;7.40;99.90
51837;DHT22;38941;53.254;6.600;2024-03-02T00:38:07;7.40;99.90
51837;DHT22;38941;53.254;6.600;2024-03-02T00:40:08;7.40;99.90
51837;DHT22;38941;53.254;6.600;2024-03-02T00:42:09;7.40;99.90
51837;DHT22;38941;53.254;6.600;2024-03-02T00:44:15;7.40;99.90
51837;DHT22;38941;53.254;6.600;2024-03-02T00:46:18;7.40;99.90
51837;DHT22;38941;53.254;6.600;2024-03-02T00:48:19;7.40;99.90
51837;DHT22;38941;53.254;6.600;2024-03-02T00:50:20;7.30;99.90
51837;DHT22;38941;53.254;6.600;2024-03-02T00:52:21;7.40;99.90
51837;DHT22;38941;53.254;6.600;2024-03-02T00:54:26;7.40;99.90
51837;DHT22;38941;53.254;6.600;2024-03-02T00:56:27;7.40;99.90
51837;DHT22;38941;53.254;6.600;2024-03-02T00:58:27;7.40;99.90
51837;DHT22;38941;53.254;6.600;2024-03-02T01:00:29;7.30;99.90
51837;DHT22;38941;53.254;6.600;2024-03-02T01:02:30;7.40;99.90
51837;DHT22;38941;53.254;6.600;2024-03-02T01:04:30;7.40;99.90
51837;DHT22;38941;53.254;6.600;2024-03-02T01:06:31;7.40;99.90
51837;DHT22;38941;53.254;6.600;2024-03-02T01:08:32;7.40;99.90
51837;DHT22;38941;53.254;6.600;2024-03-02T01:10:33;7.50;99.90
51837;DHT22;38941;53.254;6.600;2024-03-02T01:12:34;7.40;99.90
51837;DHT22;38941;53.254;6.600;2024-03-02T01:14:35;7.40;99.90
51837;DHT22;38941;53.254;6.600;2024-03-02T01:16:35;7.40;99.90
51837;DHT22;38941;53.254;6.600;2024-03-02T01:18:36;7.40;99.90
51837;DHT22;38941;53.254;6.600;2024-03-02T01:20:38;7.40;99.90
51837;DHT22;38941;53.254;6.600;2024-03-02T01:22:39;7.40;99.90
51837;DHT22;38941;53.254;6.600;2024-03-02T01:24:39;7.30;99.90
51837;DHT22;38941;53.254;6.600;2024-03-02T01:26:41;6.60;99.90
51837;DHT22;38941;53.254;6.600;2024-03-02T01:28:42;7.40;99.90
51837;DHT22;38941;53.254;6.600;2024-03-02T01:30:43;7.40;99.90
51837;DHT22;38941;53.254;6.600;2024-03-02T01:32:43;7.30;99.90
51837;DHT22;38941;53.254;6.600;2024-03-02T01:34:44;7.40;99.90
51837;DHT22;38941;53.254;6.600;2024-03-02T01:36:45;7.50;99.90
51837;DHT22;38941;53.254;6.600;2024-03-02T01:38:45;7.40;99.90
51837;DHT22;38941;53.254;6.600;2024-03-02T01:40:46;7.40;99.90
51837;DHT22;38941;53.254;6.600;2024-03-02T01:42:47;7.40;99.90
51837;DHT22;38941;53.254;6.600;2024-03-02T01:44:48;7.40;99.90
51837;DHT22;38941;53.254;6.600;2024-03-02T01:46:48;7.40;99.90
51837;DHT22;38941;53.254;6.600;2024-03-02T01:48:49;7.40;99.90
51837;DHT22;38941;53.254;6.600;2024-03-02T01:50:50;7.40;99.90
51837;DHT22;38941;53.254;6.600;2024-03-02T01:52:51;7.50;99.90
51837;DHT22;38941;53.254;6.600;2024-03-02T01:54:52;7.40;99.90
51837;DHT22;38941;53.254;6.600;2024-03-02T01:56:53;7.50;99.90
51837;DHT22;38941;53.254;6.600;2024-03-02T01:58:55;7.40;99.90
51837;DHT22;38941;53.254;6.600;2024-03-02T02:00:56;7.40;99.90
51837;DHT22;38941;53.254;6.600;2024-03-02T02:02:57;7.50;99.90
51837;DHT22;38941;53.254;6.600;2024-03-02T02:04:58;7.50;99.90
51837;DHT22;38941;53.254;6.600;2024-03-02T02:06:59;7.40;99.90
51837;DHT22;38941;53.254;6.600;2024-03-02T02:09:00;7.50;99.90
51837;DHT22;38941;53.254;6.600;2024-03-02T02:11:01;7.50;99.90
51837;DHT22;38941;53.254;6.600;2024-03-02T02:13:02;7.50;99.90
51837;DHT22;38941;53.254;6.600;2024-03-02T02:17:24;7.50;99.90
51837;DHT22;38941;53.254;6.600;2024-03-02T02:19:24;7.40;99.90
51837;DHT22;38941;53.254;6.600;2024-03-02T02:21:25;7.50;99.90
51837;DHT22;38941;53.254;6.600;2024-03-02T02:23:26;7.50;99.90
51837;DHT22;38941;53.254;6.600;2024-03-02T02:25:34;7.50;99.90
51837;DHT22;38941;53.254;6.600;2024-03-02T02:27:34;7.50;99.90
51837;DHT22;38941;53.254;6.600;2024-03-02T02:29:41;7.60;99.90
51837;DHT22;38941;53.254;6.600;2024-03-02T02:31:42;7.50;99.90
51837;DHT22;38941;53.254;6.600;2024-03-02T02:33:43;7.50;99.90
51837;DHT22;38941;53.254;6.600;2024-03-02T02:38:36;7.50;99.90
51837;DHT22;38941;53.254;6.600;2024-03-02T02:41:00;7.50;99.90
51837;DHT22;38941;53.254;6.600;2024-03-02T02:43:03;7.50;99.90
51837;DHT22;38941;53.254;6.600;2024-03-02T02:45:05;7.50;99.90
51837;DHT22;38941;53.254;6.600;2024-03-02T02:47:07;7.50;99.90
51837;DHT22;38941;53.254;6.600;2024-03-02T02:49:09;7.50;99.90
51837;DHT22;38941;53.254;6.600;2024-03-02T02:51:09;7.50;99.90
51837;DHT22;38941;53.254;6.600;2024-03-02T02:53:10;7.60;99.90
51837;DHT22;38941;53.254;6.600;2024-03-02T02:55:12;7.50;99.90
51837;DHT22;38941;53.254;6.600;2024-03-02T02:57:14;7.50;99.90
51837;DHT22;38941;53.254;6.600;2024-03-02T02:59:15;7.60;99.90
51837;DHT22;38941;53.254;6.600;2024-03-02T03:01:16;7.60;99.90
51837;DHT22;38941;53.254;6.600;2024-03-02T03:03:20;7.60;99.90
51837;DHT22;38941;53.254;6.600;2024-03-02T03:05:20;7.60;99.90
51837;DHT22;38941;53.254;6.600;2024-03-02T03:07:21;7.60;99.90
51837;DHT22;38941;53.254;6.600;2024-03-02T03:09:22;7.60;99.90
51837;DHT22;38941;53.254;6.600;2024-03-02T03:11:23;7.60;99.90
51837;DHT22;38941;53.254;6.600;2024-03-02T03:13:25;7.60;99.90
51837;DHT22;38941;53.254;6.600;2024-03-02T03:15:26;7.60;99.90
51837;DHT22;38941;53.254;6.600;2024-03-02T03:17:26;7.60;99.90
51837;DHT22;38941;53.254;6.600;2024-03-02T03:19:27;7.60;99.90
51837;DHT22;38941;53.254;6.600;2024-03-02T03:21:28;7.60;99.90
51837;DHT22;38941;53.254;6.600;2024-03-02T03:23:29;7.70;99.90
51837;DHT22;38941;53.254;6.600;2024-03-02T03:25:30;7.60;99.90
51837;DHT22;38941;53.254;6.600;2024-03-02T03:27:31;7.60;99.90
51837;DHT22;38941;53.254;6.600;2024-03-02T03:29:32;7.60;99.90
51837;DHT22;38941;53.254;6.600;2024-03-02T03:31:33;7.60;99.90
51837;DHT22;38941;53.254;6.600;2024-03-02T03:33:34;7.60;99.90
51837;DHT22;38941;53.254;6.600;2024-03-02T03:35:34;7.70;99.90
51837;DHT22;38941;53.254;6.600;2024-03-02T03:37:35;7.60;99.90
51837;DHT22;38941;53.254;6.600;2024-03-02T03:39:36;7.60;99.90
51837;DHT22;38941;53.254;6.600;2024-03-02T03:41:37;7.60;99.90
51837;DHT22;38941;53.254;6.600;2024-03-02T03:43:39;7.60;99.90
51837;DHT22;38941;53.254;6.600;2024-03-02T03:45:39;7.60;99.90
51837;DHT22;38941;53.254;6.600;2024-03-02T03:47:40;7.60;99.90
51837;DHT22;38941;53.254;6.600;2024-03-02T03:49:41;7.70;99.90
51837;DHT22;38941;53.254;6.600;2024-03-02T03:51:42;7.70;99.90
51837;DHT22;38941;53.254;6.600;2024-03-02T03:53:43;7.70;99.90
51837;DHT22;38941;53.254;6.600;2024-03-02T03:55:44;7.70;99.90
51837;DHT22;38941;53.254;6.600;2024-03-02T03:57:47;7.70;99.90
51837;DHT22;38941;53.254;6.600;2024-03-02T03:59:47;7.70;99.90
51837;DHT22;38941;53.254;6.600;2024-03-02T04:01:48;7.80;99.90
51837;DHT22;38941;53.254;6.600;2024-03-02T04:03:49;7.80;99.90
51837;DHT22;38941;53.254;6.600;2024-03-02T04:05:50;7.80;99.90
51837;DHT22;38941;53.254;6.600;2024-03-02T04:07:50;7.80;99.90
51837;DHT22;38941;53.254;6.600;2024-03-02T04:09:53;7.80;99.90
51837;DHT22;38941;53.254;6.600;2024-03-02T04:11:54;7.70;99.90
51837;DHT22;38941;53.254;6.600;2024-03-02T04:13:55;7.70;99.90
51837;DHT22;38941;53.254;6.600;2024-03-02T04:15:56;7.70;99.90
51837;DHT22;38941;53.254;6.600;2024-03-02T04:17:58;7.70;99.90
51837;DHT22;38941;53.254;6.600;2024-03-02T04:19:59;7.70;99.90
51837;DHT22;38941;53.254;6.600;2024-03-02T04:22:00;7.60;99.90
51837;DHT22;38941;53.254;6.600;2024-03-02T04:24:01;7.70;99.90
51837;DHT22;38941;53.254;6.600;2024-03-02T04:26:03;7.60;99.90
51837;DHT22;38941;53.254;6.600;2024-03-02T04:28:04;7.60;99.90
51837;DHT22;38941;53.254;6.600;2024-03-02T04:30:05;7.60;99.90
51837;DHT22;38941;53.254;6.600;2024-03-02T04:32:06;7.60;99.90
51837;DHT22;38941;53.254;6.600;2024-03-02T04:34:07;7.60;99.90
51837;DHT22;38941;53.254;6.600;2024-03-02T04:36:09;7.60;99.90
51837;DHT22;38941;53.254;6.600;2024-03-02T04:38:11;7.60;99.90
51837;DHT22;38941;53.254;6.600;2024-03-02T04:40:12;7.60;99.90
51837;DHT22;38941;53.254;6.600;2024-03-02T04:42:13;7.60;99.90
51837;DHT22;38941;53.254;6.600;2024-03-02T04:44:14;7.60;99.90
51837;DHT22;38941;53.254;6.600;2024-03-02T04:46:15;7.60;99.90
51837;DHT22;38941;53.254;6.600;2024-03-02T04:48:16;7.50;99.90
51837;DHT22;38941;53.254;6.600;2024-03-02T04:50:17;7.50;99.90
51837;DHT22;38941;53.254;6.600;2024-03-02T04:52:18;7.50;99.90
51837;DHT22;38941;53.254;6.600;2024-03-02T04:54:19;7.50;99.90
51837;DHT22;38941;53.254;6.600;2024-03-02T04:56:20;7.60;99.90
51837;DHT22;38941;53.254;6.600;2024-03-02T04:58:23;7.60;99.90
51837;DHT22;38941;53.254;6.600;2024-03-02T05:00:24;7.50;99.90
51837;DHT22;38941;53.254;6.600;2024-03-02T05:02:25;7.50;99.90
51837;DHT22;38941;53.254;6.600;2024-03-02T05:04:25;7.60;99.90
51837;DHT22;38941;53.254;6.600;2024-03-02T05:06:27;7.50;99.90
51837;DHT22;38941;53.254;6.600;2024-03-02T05:08:29;7.50;99.90
51837;DHT22;38941;53.254;6.600;2024-03-02T05:10:31;7.50;99.90
51837;DHT22;38941;53.254;6.600;2024-03-02T05:12:31;7.50;99.90
51837;DHT22;38941;53.254;6.600;2024-03-02T05:14:55;7.50;99.90
51837;DHT22;38941;53.254;6.600;2024-03-02T05:16:56;7.40;99.90
51837;DHT22;38941;53.254;6.600;2024-03-02T05:18:57;7.50;99.90
51837;DHT22;38941;53.254;6.600;2024-03-02T05:20:58;7.50;99.90
51837;DHT22;38941;53.254;6.600;2024-03-02T05:22:58;7.50;99.90
51837;DHT22;38941;53.254;6.600;2024-03-02T05:25:00;7.40;99.90
51837;DHT22;38941;53.254;6.600;2024-03-02T05:27:01;7.50;99.90
51837;DHT22;38941;53.254;6.600;2024-03-02T05:29:01;7.40;99.90
51837;DHT22;38941;53.254;6.600;2024-03-02T05:31:04;7.40;99.90
51837;DHT22;38941;53.254;6.600;2024-03-02T05:33:05;7.40;99.90
51837;DHT22;38941;53.254;6.600;2024-03-02T05:35:07;7.40;99.90
51837;DHT22;38941;53.254;6.600;2024-03-02T05:37:08;7.40;99.90
51837;DHT22;38941;53.254;6.600;2024-03-02T05:39:09;7.40;99.90
51837;DHT22;38941;53.254;6.600;2024-03-02T05:41:10;7.30;99.90
51837;DHT22;38941;53.254;6.600;2024-03-02T05:43:12;7.40;99.90
51837;DHT22;38941;53.254;6.600;2024-03-02T05:45:13;7.30;99.90
51837;DHT22;38941;53.254;6.600;2024-03-02T05:47:13;7.30;99.90
51837;DHT22;38941;53.254;6.600;2024-03-02T05:49:14;7.30;99.90
51837;DHT22;38941;53.254;6.600;2024-03-02T05:51:15;7.30;99.90
51837;DHT22;38941;53.254;6.600;2024-03-02T05:53:15;7.30;99.90
51837;DHT22;38941;53.254;6.600;2024-03-02T05:55:16;7.30;99.90
51837;DHT22;38941;53.254;6.600;2024-03-02T05:57:17;7.30;99.90
51837;DHT22;38941;53.254;6.600;2024-03-02T05:59:32;7.30;99.90
51837;DHT22;38941;53.254;6.600;2024-03-02T06:01:32;7.30;99.90
51837;DHT22;38941;53.254;6.600;2024-03-02T06:03:33;7.20;99.90
51837;DHT22;38941;53.254;6.600;2024-03-02T06:05:34;7.30;99.90
51837;DHT22;38941;53.254;6.600;2024-03-02T06:07:35;7.20;99.90
51837;DHT22;38941;53.254;6.600;2024-03-02T06:09:35;7.20;99.90
51837;DHT22;38941;53.254;6.600;2024-03-02T06:11:37;7.30;99.90
51837;DHT22;38941;53.254;6.600;2024-03-02T06:13:38;7.30;99.90
51837;DHT22;38941;53.254;6.600;2024-03-02T06:15:38;7.30;99.90
51837;DHT22;38941;53.254;6.600;2024-03-02T06:17:39;7.30;99.90
51837;DHT22;38941;53.254;6.600;2024-03-02T06:19:42;7.20;99.90
51837;DHT22;38941;53.254;6.600;2024-03-02T06:21:43;7.30;99.90
51837;DHT22;38941;53.254;6.600;2024-03-02T06:23:45;7.30;99.90
51837;DHT22;38941;53.254;6.600;2024-03-02T06:25:45;7.30;99.90
51837;DHT22;38941;53.254;6.600;2024-03-02T06:27:46;7.30;99.90
51837;DHT22;38941;53.254;6.600;2024-03-02T06:29:47;7.30;99.90
51837;DHT22;38941;53.254;6.600;2024-03-02T06:31:49;7.30;99.90
51837;DHT22;38941;53.254;6.600;2024-03-02T06:33:49;7.30;99.90
51837;DHT22;38941;53.254;6.600;2024-03-02T06:35:50;7.40;99.90
51837;DHT22;38941;53.254;6.600;2024-03-02T06:37:51;7.30;99.90
51837;DHT22;38941;53.254;6.600;2024-03-02T06:39:51;7.40;99.90
51837;DHT22;38941;53.254;6.600;2024-03-02T06:41:55;7.40;99.90
51837;DHT22;38941;53.254;6.600;2024-03-02T06:43:56;7.40;99.90
51837;DHT22;38941;53.254;6.600;2024-03-02T06:46:01;7.40;99.90
51837;DHT22;38941;53.254;6.600;2024-03-02T06:48:02;7.50;99.90
51837;DHT22;38941;53.254;6.600;2024-03-02T06:50:03;7.50;99.90
51837;DHT22;38941;53.254;6.600;2024-03-02T06:52:04;7.50;99.90
51837;DHT22;38941;53.254;6.600;2024-03-02T06:54:05;7.50;99.90
51837;DHT22;38941;53.254;6.600;2024-03-02T06:56:07;7.50;99.90
51837;DHT22;38941;53.254;6.600;2024-03-02T06:58:08;7.50;99.90
51837;DHT22;38941;53.254;6.600;2024-03-02T07:00:09;7.60;99.90
51837;DHT22;38941;53.254;6.600;2024-03-02T07:02:10;7.60;99.90
51837;DHT22;38941;53.254;6.600;2024-03-02T07:04:11;7.60;99.90
51837;DHT22;38941;53.254;6.600;2024-03-02T07:06:11;7.60;99.90
51837;DHT22;38941;53.254;6.600;2024-03-02T07:08:12;7.60;99.90
51837;DHT22;38941;53.254;6.600;2024-03-02T07:10:13;7.60;99.90
51837;DHT22;38941;53.254;6.600;2024-03-02T07:12:14;7.60;99.90
51837;DHT22;38941;53.254;6.600;2024-03-02T07:14:15;7.80;99.90
51837;DHT22;38941;53.254;6.600;2024-03-02T07:16:15;8.10;99.90
51837;DHT22;38941;53.254;6.600;2024-03-02T07:18:30;8.30;99.90
51837;DHT22;38941;53.254;6.600;2024-03-02T07:20:31;8.50;99.90
51837;DHT22;38941;53.254;6.600;2024-03-02T07:22:31;8.40;99.90
51837;DHT22;38941;53.254;6.600;2024-03-02T07:24:32;8.20;99.90
51837;DHT22;38941;53.254;6.600;2024-03-02T07:26:33;8.10;99.90
51837;DHT22;38941;53.254;6.600;2024-03-02T07:28:34;8.00;99.90
51837;DHT22;38941;53.254;6.600;2024-03-02T07:30:34;7.90;99.90
51837;DHT22;38941;53.254;6.600;2024-03-02T07:32:35;7.90;99.90
51837;DHT22;38941;53.254;6.600;2024-03-02T07:34:36;7.80;99.90
51837;DHT22;38941;53.254;6.600;2024-03-02T07:36:38;7.80;99.90
51837;DHT22;38941;53.254;6.600;2024-03-02T07:38:39;7.80;99.90
51837;DHT22;38941;53.254;6.600;2024-03-02T07:40:41;7.70;99.90
51837;DHT22;38941;53.254;6.600;2024-03-02T07:42:42;8.00;99.90
51837;DHT22;38941;53.254;6.600;2024-03-02T07:44:46;7.70;99.90
51837;DHT22;38941;53.254;6.600;2024-03-02T07:46:48;7.80;99.90
51837;DHT22;38941;53.254;6.600;2024-03-02T07:48:52;7.80;99.90
51837;DHT22;38941;53.254;6.600;2024-03-02T07:50:53;7.90;99.90
51837;DHT22;38941;53.254;6.600;2024-03-02T07:52:54;7.90;99.90
51837;DHT22;38941;53.254;6.600;2024-03-02T07:54:54;8.00;99.90
51837;DHT22;38941;53.254;6.600;2024-03-02T07:56:55;8.10;99.90
51837;DHT22;38941;53.254;6.600;2024-03-02T07:58:56;8.40;99.90
51837;DHT22;38941;53.254;6.600;2024-03-02T08:01:01;8.70;99.90
51837;DHT22;38941;53.254;6.600;2024-03-02T08:03:02;9.00;99.90
51837;DHT22;38941;53.254;6.600;2024-03-02T08:05:02;9.50;99.90
51837;DHT22;38941;53.254;6.600;2024-03-02T08:07:04;9.80;99.90
51837;DHT22;38941;53.254;6.600;2024-03-02T08:09:04;10.10;99.90
51837;DHT22;38941;53.254;6.600;2024-03-02T08:11:10;10.30;99.90
51837;DHT22;38941;53.254;6.600;2024-03-02T08:13:10;10.40;99.90
51837;DHT22;38941;53.254;6.600;2024-03-02T08:15:12;10.30;99.90
51837;DHT22;38941;53.254;6.600;2024-03-02T08:17:13;10.50;99.90
51837;DHT22;38941;53.254;6.600;2024-03-02T08:19:14;10.60;99.90
51837;DHT22;38941;53.254;6.600;2024-03-02T08:21:15;10.80;99.90
51837;DHT22;38941;53.254;6.600;2024-03-02T08:23:17;11.10;99.90
51837;DHT22;38941;53.254;6.600;2024-03-02T08:25:17;11.40;99.90
51837;DHT22;38941;53.254;6.600;2024-03-02T08:27:18;11.60;99.90
51837;DHT22;38941;53.254;6.600;2024-03-02T08:29:19;11.70;99.90
51837;DHT22;38941;53.254;6.600;2024-03-02T08:31:20;11.60;99.90
51837;DHT22;38941;53.254;6.600;2024-03-02T08:33:20;11.80;99.90
51837;DHT22;38941;53.254;6.600;2024-03-02T08:35:21;12.10;99.90
51837;DHT22;38941;53.254;6.600;2024-03-02T08:37:22;12.50;99.90
51837;DHT22;38941;53.254;6.600;2024-03-02T08:39:24;13.00;99.90
51837;DHT22;38941;53.254;6.600;2024-03-02T08:41:24;13.60;99.90
51837;DHT22;38941;53.254;6.600;2024-03-02T08:43:25;14.10;99.90
51837;DHT22;38941;53.254;6.600;2024-03-02T08:45:26;13.90;99.90
51837;DHT22;38941;53.254;6.600;2024-03-02T08:47:27;13.00;99.90
51837;DHT22;38941;53.254;6.600;2024-03-02T08:49:28;12.50;99.90
51837;DHT22;38941;53.254;6.600;2024-03-02T08:51:28;11.90;99.90
51837;DHT22;38941;53.254;6.600;2024-03-02T08:53:29;11.30;99.90
51837;DHT22;38941;53.254;6.600;2024-03-02T08:55:30;11.00;99.90
51837;DHT22;38941;53.254;6.600;2024-03-02T08:57:31;10.80;99.90
51837;DHT22;38941;53.254;6.600;2024-03-02T08:59:32;10.80;99.90
51837;DHT22;38941;53.254;6.600;2024-03-02T09:01:33;10.70;99.90
51837;DHT22;38941;53.254;6.600;2024-03-02T09:03:35;10.60;99.90
51837;DHT22;38941;53.254;6.600;2024-03-02T09:05:36;10.70;99.90
51837;DHT22;38941;53.254;6.600;2024-03-02T09:07:37;10.60;99.90
51837;DHT22;38941;53.254;6.600;2024-03-02T09:09:39;10.80;99.90
51837;DHT22;38941;53.254;6.600;2024-03-02T09:11:39;10.70;99.90
51837;DHT22;38941;53.254;6.600;2024-03-02T09:13:40;10.60;99.90
51837;DHT22;38941;53.254;6.600;2024-03-02T09:15:41;10.30;99.90
51837;DHT22;38941;53.254;6.600;2024-03-02T09:17:42;10.30;99.90
51837;DHT22;38941;53.254;6.600;2024-03-02T09:19:43;10.10;99.90
51837;DHT22;38941;53.254;6.600;2024-03-02T09:21:44;10.40;99.90
51837;DHT22;38941;53.254;6.600;2024-03-02T09:23:44;11.30;99.90
51837;DHT22;38941;53.254;6.600;2024-03-02T09:25:46;11.30;99.90
51837;DHT22;38941;53.254;6.600;2024-03-02T09:27:47;11.40;99.90
51837;DHT22;38941;53.254;6.600;2024-03-02T09:29:48;11.50;99.90
51837;DHT22;38941;53.254;6.600;2024-03-02T09:31:48;11.90;99.90
51837;DHT22;38941;53.254;6.600;2024-03-02T09:33:52;12.40;99.90
51837;DHT22;38941;53.254;6.600;2024-03-02T09:35:52;12.70;99.90
51837;DHT22;38941;53.254;6.600;2024-03-02T09:37:53;13.20;99.90
51837;DHT22;38941;53.254;6.600;2024-03-02T09:39:54;13.20;99.90
51837;DHT22;38941;53.254;6.600;2024-03-02T09:50:01;13.60;99.90
51837;DHT22;38941;53.254;6.600;2024-03-02T09:52:03;14.50;99.90
51837;DHT22;38941;53.254;6.600;2024-03-02T09:54:07;14.20;99.90
51837;DHT22;38941;53.254;6.600;2024-03-02T09:56:09;14.20;99.90
51837;DHT22;38941;53.254;6.600;2024-03-02T09:58:10;14.60;99.90
51837;DHT22;38941;53.254;6.600;2024-03-02T10:00:11;14.80;99.90
51837;DHT22;38941;53.254;6.600;2024-03-02T10:02:15;14.50;99.90
51837;DHT22;38941;53.254;6.600;2024-03-02T10:04:16;14.20;99.90
51837;DHT22;38941;53.254;6.600;2024-03-02T10:06:25;13.50;99.90
51837;DHT22;38941;53.254;6.600;2024-03-02T10:08:25;13.50;99.90
51837;DHT22;38941;53.254;6.600;2024-03-02T10:10:37;13.50;99.90
51837;DHT22;38941;53.254;6.600;2024-03-02T10:12:40;13.40;99.90
51837;DHT22;38941;53.254;6.600;2024-03-02T10:14:43;13.40;99.90
51837;DHT22;38941;53.254;6.600;2024-03-02T10:16:44;13.00;99.90
51837;DHT22;38941;53.254;6.600;2024-03-02T10:18:45;12.50;99.90
51837;DHT22;38941;53.254;6.600;2024-03-02T10:20:45;12.30;99.90
51837;DHT22;38941;53.254;6.600;2024-03-02T10:22:49;12.10;99.90
51837;DHT22;38941;53.254;6.600;2024-03-02T10:24:49;12.00;99.90
51837;DHT22;38941;53.254;6.600;2024-03-02T10:26:51;11.90;99.90
51837;DHT22;38941;53.254;6.600;2024-03-02T10:28:52;11.90;99.90
51837;DHT22;38941;53.254;6.600;2024-03-02T10:30:59;12.00;99.90
51837;DHT22;38941;53.254;6.600;2024-03-02T10:33:04;11.90;99.90
51837;DHT22;38941;53.254;6.600;2024-03-02T10:35:06;11.90;99.90
51837;DHT22;38941;53.254;6.600;2024-03-02T10:37:07;11.80;99.90
51837;DHT22;38941;53.254;6.600;2024-03-02T10:39:08;11.70;99.90
51837;DHT22;38941;53.254;6.600;2024-03-02T10:41:09;11.60;99.90
51837;DHT22;38941;53.254;6.600;2024-03-02T10:43:11;11.60;99.90
51837;DHT22;38941;53.254;6.600;2024-03-02T10:45:15;11.80;99.90
51837;DHT22;38941;53.254;6.600;2024-03-02T10:47:18;11.70;99.90
51837;DHT22;38941;53.254;6.600;2024-03-02T10:49:20;11.70;99.90
51837;DHT22;38941;53.254;6.600;2024-03-02T10:51:23;12.00;99.90
51837;DHT22;38941;53.254;6.600;2024-03-02T10:53:24;12.40;99.90
51837;DHT22;38941;53.254;6.600;2024-03-02T10:55:25;12.50;99.90
51837;DHT22;38941;53.254;6.600;2024-03-02T11:00:33;12.80;99.90
51837;DHT22;38941;53.254;6.600;2024-03-02T11:03:10;13.20;99.90
51837;DHT22;38941;53.254;6.600;2024-03-02T11:05:31;13.70;99.90
51837;DHT22;38941;53.254;6.600;2024-03-02T11:07:32;13.60;99.90
51837;DHT22;38941;53.254;6.600;2024-03-02T11:09:35;13.80;99.90
51837;DHT22;38941;53.254;6.600;2024-03-02T11:11:38;13.90;99.90
51837;DHT22;38941;53.254;6.600;2024-03-02T11:13:47;13.90;99.90
51837;DHT22;38941;53.254;6.600;2024-03-02T11:15:52;13.80;99.90
51837;DHT22;38941;53.254;6.600;2024-03-02T11:17:56;13.90;99.90
51837;DHT22;38941;53.254;6.600;2024-03-02T11:19:58;14.20;99.90
51837;DHT22;38941;53.254;6.600;2024-03-02T11:21:59;14.40;99.90
51837;DHT22;38941;53.254;6.600;2024-03-02T11:24:00;14.60;99.90
51837;DHT22;38941;53.254;6.600;2024-03-02T11:26:21;14.40;99.90
51837;DHT22;38941;53.254;6.600;2024-03-02T11:28:35;14.30;99.90
51837;DHT22;38941;53.254;6.600;2024-03-02T11:32:39;14.60;99.90
51837;DHT22;38941;53.254;6.600;2024-03-02T11:34:43;14.70;99.90
51837;DHT22;38941;53.254;6.600;2024-03-02T11:36:50;14.80;99.90
51837;DHT22;38941;53.254;6.600;2024-03-02T11:38:50;14.80;99.90
51837;DHT22;38941;53.254;6.600;2024-03-02T11:40:53;14.80;99.90
51837;DHT22;38941;53.254;6.600;2024-03-02T11:42:54;14.80;99.90
51837;DHT22;38941;53.254;6.600;2024-03-02T11:44:56;14.80;99.90
51837;DHT22;38941;53.254;6.600;2024-03-02T11:47:07;14.90;99.90
51837;DHT22;38941;53.254;6.600;2024-03-02T11:49:08;14.90;99.90
51837;DHT22;38941;53.254;6.600;2024-03-02T16:41:11;15.10;99.90
51837;DHT22;38941;53.254;6.600;2024-03-02T16:43:12;15.40;91.00
51837;DHT22;38941;53.254;6.600;2024-03-02T16:45:13;15.20;91.60
51837;DHT22;38941;53.254;6.600;2024-03-02T16:47:14;15.20;92.00
51837;DHT22;38941;53.254;6.600;2024-03-02T16:49:15;15.00;92.30
51837;DHT22;38941;53.254;6.600;2024-03-02T16:51:16;15.00;92.60
51837;DHT22;38941;53.254;6.600;2024-03-02T18:28:26;14.80;92.80
51837;DHT22;38941;53.254;6.600;2024-03-02T18:30:26;11.80;99.90
51837;DHT22;38941;53.254;6.600;2024-03-02T18:32:27;11.70;99.90
51837;DHT22;38941;53.254;6.600;2024-03-02T18:34:28;11.60;99.90
51837;DHT22;38941;53.254;6.600;2024-03-02T18:36:29;11.60;99.90
51837;DHT22;38941;53.254;6.600;2024-03-02T18:38:29;11.50;99.90
51837;DHT22;38941;53.254;6.600;2024-03-02T18:40:30;11.50;99.90
51837;DHT22;38941;53.254;6.600;2024-03-02T18:42:34;11.40;99.90
51837;DHT22;38941;53.254;6.600;2024-03-02T18:44:35;11.40;99.90
51837;DHT22;38941;53.254;6.600;2024-03-02T18:46:36;11.30;99.90
51837;DHT22;38941;53.254;6.600;2024-03-02T18:48:38;11.30;99.90
51837;DHT22;38941;53.254;6.600;2024-03-02T18:50:39;11.20;99.90
51837;DHT22;38941;53.254;6.600;2024-03-02T18:52:39;11.20;99.90
51837;DHT22;38941;53.254;6.600;2024-03-02T18:54:41;11.20;99.90
51837;DHT22;38941;53.254;6.600;2024-03-02T18:56:42;11.20;99.90
51837;DHT22;38941;53.254;6.600;2024-03-02T18:58:42;11.10;99.90
51837;DHT22;38941;53.254;6.600;2024-03-02T19:00:43;11.10;99.90
51837;DHT22;38941;53.254;6.600;2024-03-02T19:02:44;11.00;99.90
51837;DHT22;38941;53.254;6.600;2024-03-02T19:04:45;11.00;99.90
51837;DHT22;38941;53.254;6.600;2024-03-02T19:06:47;11.00;99.90
51837;DHT22;38941;53.254;6.600;2024-03-02T19:08:48;11.00;99.90
51837;DHT22;38941;53.254;6.600;2024-03-02T19:10:49;11.00;99.90
51837;DHT22;38941;53.254;6.600;2024-03-02T19:12:50;10.90;99.90
51837;DHT22;38941;53.254;6.600;2024-03-02T19:14:52;10.90;99.90
51837;DHT22;38941;53.254;6.600;2024-03-02T19:16:52;10.90;99.90
51837;DHT22;38941;53.254;6.600;2024-03-02T19:18:54;10.80;99.90
51837;DHT22;38941;53.254;6.600;2024-03-02T19:20:55;10.80;99.90
51837;DHT22;38941;53.254;6.600;2024-03-02T19:22:56;10.80;99.90
51837;DHT22;38941;53.254;6.600;2024-03-02T19:24:56;10.80;99.90
51837;DHT22;38941;53.254;6.600;2024-03-02T19:26:57;10.70;99.90
51837;DHT22;38941;53.254;6.600;2024-03-02T19:29:00;10.70;99.90
51837;DHT22;38941;53.254;6.600;2024-03-02T19:31:00;10.60;99.90
51837;DHT22;38941;53.254;6.600;2024-03-02T19:33:04;10.60;99.90
51837;DHT22;38941;53.254;6.600;2024-03-02T19:35:06;10.50;99.90
51837;DHT22;38941;53.254;6.600;2024-03-02T19:37:07;10.50;99.90
51837;DHT22;38941;53.254;6.600;2024-03-02T19:39:08;10.50;99.90
51837;DHT22;38941;53.254;6.600;2024-03-02T19:41:11;10.40;99.90
51837;DHT22;38941;53.254;6.600;2024-03-02T19:43:13;10.40;99.90